Time;durP1;ratioP1;P1;durP2;ratioP2;P2;SDS_P1;SDS_P2;PMS_P1;PMS_P2;Temp;Humidity;BMP_temperature;BMP_pressure;BME280_temperature;BME280_humidity;BME280_pressure;Samples;Min_cycle;Max_cycle;Signal;HPM_P1;HPM_P2
2023/11/10 00:01:33;;;;;;;11.20;6.57;;;;;;;;;;5114558;28;20055;-73
2023/11/10 00:04:37;;;;;;;12.63;6.50;;;;;;;;;;5114903;28;20039;-74
2023/11/10 00:07:42;;;;;;;14.77;7.32;;;;;;;;;;5114341;28;20047;-74
2023/11/10 00:10:47;;;;;;;15.80;7.15;;;;;;;;;;5114541;28;20066;-75
2023/11/10 00:13:53;;;;;;;13.18;7.72;;;;;;;;;;5114644;28;20043;-75
2023/11/10 00:16:57;;;;;;;14.48;7.75;;;;;;;;;;5113367;28;20142;-75
2023/11/10 00:20:01;;;;;;;12.20;6.80;;;;;;;;;;5114348;28;20054;-75
2023/11/10 00:23:07;;;;;;;16.52;6.78;;;;;;;;;;5113094;28;20039;-75
2023/11/10 00:26:21;;;;;;;16.13;7.38;;;14.20;99.90;;;;;;5114332;28;20034;-75
2023/11/10 00:29:26;;;;;;;13.70;7.18;;;;;;;;;;5114339;28;20502;-75
2023/11/10 00:32:31;;;;;;;15.05;7.43;;;;;;;;;;5113917;28;20051;-75
2023/11/10 00:35:35;;;;;;;16.05;7.70;;;;;;;;;;5113324;28;20399;-75
2023/11/10 00:38:39;;;;;;;12.48;6.60;;;;;;;;;;5113862;28;20051;-74
2023/11/10 00:41:46;;;;;;;11.70;6.78;;;;;;;;;;5113970;28;20669;-75
2023/11/10 00:44:52;;;;;;;21.10;7.28;;;;;;;;;;5113860;28;20391;-72
2023/11/10 00:47:56;;;;;;;14.55;8.40;;;;;;;;;;5113788;28;20046;-74
2023/11/10 00:51:01;;;;;;;12.00;7.13;;;;;;;;;;5113951;28;20043;-74
2023/11/10 00:54:05;;;;;;;13.40;6.70;;;;;;;;;;5113150;28;20533;-74
2023/11/10 00:57:09;;;;;;;8.95;6.40;;;;;;;;;;5113698;28;20062;-74
2023/11/10 01:00:14;;;;;;;11.25;6.00;;;;;;;;;;5112853;28;20044;-75
2023/11/10 01:03:17;;;;;;;15.43;6.70;;;;;;;;;;5113857;28;20050;-75
2023/11/10 01:06:22;;;;;;;10.05;5.43;;;;;;;;;;5113067;28;20598;-74
2023/11/10 01:09:26;;;;;;;13.52;5.82;;;;;;;;;;5114382;28;20039;-74
2023/11/10 01:12:30;;;;;;;12.05;6.53;;;;;;;;;;5112811;28;20042;-74
2023/11/10 01:15:35;;;;;;;11.50;6.32;;;;;;;;;;5112723;28;20043;-74
2023/11/10 01:18:39;;;;;;;12.13;6.47;;;;;;;;;;5112989;28;20046;-74
2023/11/10 01:21:45;;;;;;;13.07;6.28;;;;;;;;;;5113920;28;20051;-74
2023/11/10 01:24:49;;;;;;;11.85;6.07;;;;;;;;;;5113345;28;20380;-74
2023/11/10 01:27:54;;;;;;;10.82;5.88;;;;;;;;;;5113131;28;20047;-74
2023/11/10 01:30:58;;;;;;;13.65;6.68;;;;;;;;;;5112244;28;20054;-74
2023/11/10 01:34:06;;;;;;;16.15;7.22;;;;;;;;;;5112560;28;20406;-74
2023/11/10 01:37:10;;;;;;;10.00;6.88;;;;;;;;;;5112967;28;20043;-73
2023/11/10 01:40:15;;;;;;;12.70;7.50;;;;;;;;;;5113090;28;20051;-73
2023/11/10 01:43:19;;;;;;;10.75;6.78;;;;;;;;;;5112913;28;20050;-73
2023/11/10 01:46:44;;;;;;;9.15;6.47;;;13.80;99.90;;;;;;5112737;28;20042;-74
2023/11/10 01:49:49;;;;;;;13.70;6.60;;;;;;;;;;5112025;28;20414;-74
2023/11/10 01:52:53;;;;;;;12.38;6.63;;;;;;;;;;5111985;28;20046;-73
2023/11/10 01:56:00;;;;;;;9.85;6.10;;;;;;;;;;5111615;28;20498;-74
2023/11/10 01:59:06;;;;;;;13.55;6.97;;;14.00;99.90;;;;;;5111431;28;20035;-74
2023/11/10 02:02:10;;;;;;;11.30;6.85;;;;;;;;;;5111712;28;20047;-74
2023/11/10 02:05:14;;;;;;;15.38;7.38;;;;;;;;;;5112664;28;20520;-74
2023/11/10 02:08:19;;;;;;;14.20;7.35;;;;;;;;;;5111408;28;20043;-74
2023/11/10 02:11:26;;;;;;;13.05;7.57;;;;;;;;;;5112563;28;20046;-74
2023/11/10 02:14:35;;;;;;;14.68;7.43;;;;;;;;;;5111518;28;20047;-74
2023/11/10 02:17:42;;;;;;;15.35;7.90;;;;;;;;;;5111276;28;20160;-74
2023/11/10 02:20:46;;;;;;;15.05;9.02;;;;;;;;;;5111229;28;20050;-73
2023/11/10 02:23:52;;;;;;;15.88;9.15;;;;;;;;;;5111228;28;20046;-74
2023/11/10 02:26:57;;;;;;;17.35;9.18;;;;;;;;;;5099601;28;20043;-74
2023/11/10 02:30:01;;;;;;;15.60;9.25;;;;;;;;;;5112136;28;20038;-74
2023/11/10 02:33:05;;;;;;;14.52;9.73;;;;;;;;;;5112139;28;20055;-74
2023/11/10 02:36:10;;;;;;;16.92;9.30;;;;;;;;;;5111833;28;20042;-74
2023/11/10 02:39:16;;;;;;;14.85;9.68;;;;;;;;;;5111917;28;20043;-74
2023/11/10 02:42:20;;;;;;;16.23;10.43;;;;;;;;;;5111193;28;20051;-74
2023/11/10 02:45:24;;;;;;;18.85;9.90;;;;;;;;;;5110511;28;20418;-74
2023/11/10 02:48:29;;;;;;;17.83;10.80;;;;;;;;;;5110912;28;20047;-74
2023/11/10 02:51:32;;;;;;;18.23;11.45;;;;;;;;;;5110883;28;20046;-74
2023/11/10 02:54:37;;;;;;;20.45;11.05;;;;;;;;;;5111573;28;20105;-74
2023/11/10 02:57:41;;;;;;;18.98;10.48;;;;;;;;;;5111267;28;20050;-74
2023/11/10 03:00:47;;;;;;;16.15;9.95;;;;;;;;;;5111383;28;20055;-74
2023/11/10 03:03:51;;;;;;;13.00;8.77;;;;;;;;;;5111396;28;20038;-74
2023/11/10 03:06:57;;;;;;;12.18;7.30;;;;;;;;;;5110878;28;20559;-73
2023/11/10 03:10:01;;;;;;;10.68;5.72;;;;;;;;;;5110513;28;20083;-73
2023/11/10 03:13:06;;;;;;;10.88;5.50;;;;;;;;;;5111518;28;20066;-74
2023/11/10 03:16:13;;;;;;;10.10;5.03;;;;;;;;;;5110744;28;20506;-73
2023/11/10 03:19:17;;;;;;;8.20;4.85;;;;;;;;;;5111345;28;20042;-73
2023/11/10 03:22:22;;;;;;;8.52;4.93;;;;;;;;;;5111239;28;20044;-73
2023/11/10 03:25:26;;;;;;;9.93;4.18;;;;;;;;;;5111413;28;20036;-73
2023/11/10 03:28:30;;;;;;;7.65;3.60;;;;;;;;;;5111231;28;20036;-73
2023/11/10 03:31:37;;;;;;;5.20;3.40;;;;;;;;;;5110188;28;20044;-73
2023/11/10 03:34:42;;;;;;;5.72;3.05;;;;;;;;;;5110388;28;20040;-74
2023/11/10 03:37:46;;;;;;;3.83;2.10;;;;;;;;;;5110299;28;20420;-74
2023/11/10 03:40:51;;;;;;;6.85;2.22;;;;;;;;;;5111107;28;20048;-73
2023/11/10 03:43:55;;;;;;;5.82;1.63;;;;;;;;;;5111376;28;20479;-74
2023/11/10 03:46:59;;;;;;;3.85;1.27;;;;;;;;;;5111257;28;20062;-73
2023/11/10 03:50:03;;;;;;;9.80;1.40;;;;;;;;;;5111108;28;20036;-72
2023/11/10 03:53:08;;;;;;;3.47;1.25;;;;;;;;;;5111458;28;20483;-73
2023/11/10 03:56:12;;;;;;;5.05;1.20;;;;;;;;;;5111358;28;20031;-73
2023/11/10 03:59:16;;;;;;;5.75;1.40;;;;;;;;;;5114942;28;20035;-74
2023/11/10 04:02:21;;;;;;;4.65;1.20;;;;;;;;;;5114833;28;20035;-74
2023/11/10 04:05:26;;;;;;;2.40;1.33;;;;;;;;;;5115030;28;20039;-73
2023/11/10 04:08:31;;;;;;;8.55;3.13;;;;;;;;;;5114576;28;20032;-73
2023/11/10 04:11:35;;;;;;;6.28;2.22;;;;;;;;;;5114925;28;20039;-73
2023/11/10 04:14:40;;;;;;;8.82;1.95;;;;;;;;;;5114463;28;20036;-73
2023/11/10 04:17:44;;;;;;;3.88;1.50;;;;;;;;;;5114558;28;20039;-73
2023/11/10 04:20:49;;;;;;;5.25;2.00;;;;;;;;;;5114168;28;20055;-73
2023/11/10 04:23:53;;;;;;;8.80;2.65;;;;;;;;;;5114109;28;20027;-73
2023/11/10 04:26:57;;;;;;;6.15;2.13;;;;;;;;;;5113215;28;20036;-73
2023/11/10 04:30:02;;;;;;;6.20;1.90;;;;;;;;;;5114907;28;20039;-73
2023/11/10 04:33:07;;;;;;;6.15;1.98;;;;;;;;;;5114172;28;20040;-73
2023/11/10 04:36:13;;;;;;;7.53;1.80;;;;;;;;;;5114379;28;20472;-73
2023/11/10 04:39:17;;;;;;;4.80;1.85;;;;;;;;;;5114356;28;20039;-73
2023/11/10 04:42:21;;;;;;;5.93;2.17;;;;;;;;;;5114706;28;20043;-73
2023/11/10 04:45:26;;;;;;;6.20;1.80;;;;;;;;;;5114224;28;20032;-73
2023/11/10 04:48:31;;;;;;;10.82;2.30;;;;;;;;;;5113859;28;20353;-73
2023/11/10 04:51:34;;;;;;;7.75;2.92;;;;;;;;;;5113999;28;20043;-72
2023/11/10 04:54:41;;;;;;;5.20;2.13;;;15.00;99.90;;;;;;5114031;28;20036;-72
2023/11/10 04:57:49;;;;;;;4.40;2.28;;;;;;;;;;5113525;28;20047;-72
2023/11/10 05:00:54;;;;;;;5.70;2.40;;;;;;;;;;5113692;28;20043;-74
2023/11/10 05:03:59;;;;;;;9.35;1.98;;;;;;;;;;5113911;28;20040;-74
2023/11/10 05:07:03;;;;;;;5.90;1.85;;;;;;;;;;5113706;28;20039;-74
2023/11/10 05:10:08;;;;;;;3.95;1.90;;;;;;;;;;5113196;28;20040;-74
2023/11/10 05:13:12;;;;;;;7.70;2.03;;;;;;;;;;5113779;28;20048;-74
2023/11/10 05:16:16;;;;;;;6.13;1.83;;;;;;;;;;5113648;28;20365;-73
2023/11/10 05:19:21;;;;;;;8.40;2.22;;;;;;;;;;5113580;28;20039;-73
2023/11/10 05:22:26;;;;;;;4.97;2.03;;;;;;;;;;5113313;28;20043;-73
2023/11/10 05:25:30;;;;;;;7.05;2.45;;;;;;;;;;5113424;28;20475;-74
2023/11/10 05:28:34;;;;;;;7.35;2.40;;;;;;;;;;5113247;28;20032;-74
2023/11/10 05:31:39;;;;;;;6.28;2.20;;;;;;;;;;5112840;28;20055;-73
2023/11/10 05:34:43;;;;;;;5.13;2.13;;;;;;;;;;5113162;28;20052;-73
2023/11/10 05:37:47;;;;;;;10.00;2.28;;;;;;;;;;5112943;28;20027;-73
2023/11/10 05:40:51;;;;;;;8.70;2.10;;;;;;;;;;5112817;28;20046;-74
2023/11/10 05:43:56;;;;;;;9.48;2.13;;;;;;;;;;5112772;28;20039;-74
2023/11/10 05:47:01;;;;;;;7.40;2.25;;;;;;;;;;5113345;28;20047;-74
2023/11/10 05:50:06;;;;;;;5.65;1.70;;;;;;;;;;5112951;28;20040;-74
2023/11/10 05:53:10;;;;;;;7.60;1.83;;;;;;;;;;5113086;28;20028;-74
2023/11/10 05:56:14;;;;;;;8.80;2.72;;;;;;;;;;5113155;28;20035;-74
2023/11/10 05:59:18;;;;;;;4.72;1.80;;;;;;;;;;5112843;28;20028;-74
2023/11/10 06:02:24;;;;;;;8.13;1.90;;;;;;;;;;5112910;28;20047;-74
2023/11/10 06:05:30;;;;;;;7.03;2.03;;;;;;;;;;5112382;28;20032;-75
2023/11/10 06:08:36;;;;;;;10.85;1.90;;;;;;;;;;5112526;28;20047;-74
2023/11/10 06:11:40;;;;;;;7.22;2.20;;;;;;;;;;5112561;28;20046;-74
2023/11/10 06:14:45;;;;;;;5.68;2.22;;;;;;;;;;5112370;28;20035;-75
2023/11/10 06:17:58;;;;;;;6.80;2.30;;;;;;;;;;5112377;28;20040;-74
2023/11/10 06:21:04;;;;;;;7.03;2.45;;;;;;;;;;5110378;28;20499;-69
2023/11/10 06:24:09;;;;;;;9.50;2.60;;;;;;;;;;5112177;28;20035;-70
2023/11/10 06:27:13;;;;;;;6.13;2.97;;;;;;;;;;5111808;28;20035;-69
2023/11/10 06:30:17;;;;;;;7.53;2.80;;;;;;;;;;5111875;28;20039;-71
2023/11/10 06:33:22;;;;;;;8.27;2.60;;;;;;;;;;5111691;28;20377;-70
2023/11/10 06:36:26;;;;;;;7.10;2.58;;;;;;;;;;5111794;28;20480;-70
2023/11/10 06:39:30;;;;;;;10.20;2.85;;;;;;;;;;5111625;28;20035;-70
2023/11/10 06:42:35;;;;;;;9.00;2.60;;;;;;;;;;5111650;28;20058;-71
2023/11/10 06:45:39;;;;;;;8.02;2.80;;;;;;;;;;5111883;28;20036;-71
2023/11/10 06:48:44;;;;;;;10.43;2.53;;;;;;;;;;5111378;28;20573;-72
2023/11/10 06:51:48;;;;;;;11.90;2.85;;;;;;;;;;5111379;28;20055;-72
2023/11/10 06:54:52;;;;;;;9.32;2.90;;;;;;;;;;5111390;28;20502;-72
2023/11/10 06:57:57;;;;;;;6.32;2.53;;;;;;;;;;5111460;28;20035;-72
2023/11/10 07:01:02;;;;;;;5.68;2.78;;;;;;;;;;5111226;28;20047;-71
2023/11/10 07:04:06;;;;;;;9.18;2.70;;;;;;;;;;5111448;28;20032;-71
2023/11/10 07:07:11;;;;;;;11.65;2.80;;;;;;;;;;5111059;28;20039;-72
2023/11/10 07:10:15;;;;;;;8.02;2.13;;;;;;;;;;5110568;28;20586;-72
2023/11/10 07:13:20;;;;;;;7.00;2.42;;;;;;;;;;5111326;28;20036;-73
2023/11/10 07:16:26;;;;;;;8.07;3.58;;;;;;;;;;5111465;28;20032;-72
2023/11/10 07:19:31;;;;;;;5.78;2.13;;;;;;;;;;5111136;28;20027;-74
2023/11/10 07:22:36;;;;;;;5.93;2.00;;;;;;;;;;5111096;28;20035;-71
2023/11/10 07:25:41;;;;;;;6.18;1.70;;;;;;;;;;5111121;28;20491;-72
2023/11/10 07:28:45;;;;;;;5.47;1.80;;;;;;;;;;5110917;28;20036;-71
2023/11/10 07:31:51;;;;;;;4.30;1.80;;;;;;;;;;5111877;28;20051;-72
2023/11/10 07:34:55;;;;;;;6.75;1.88;;;;;;;;;;5114495;28;20471;-72
2023/11/10 07:38:00;;;;;;;1.75;1.10;;;;;;;;;;5115061;28;20044;-71
2023/11/10 07:41:05;;;;;;;3.92;1.52;;;;;;;;;;5115059;28;20518;-73
2023/11/10 07:44:10;;;;;;;6.53;1.80;;;;;;;;;;5115035;28;20031;-73
2023/11/10 07:47:14;;;;;;;8.25;1.95;;;;;;;;;;5114875;28;20040;-75
2023/11/10 07:50:19;;;;;;;4.50;1.90;;;;;;;;;;5113779;28;20044;-73
2023/11/10 07:53:25;;;;;;;8.52;2.80;;;;;;;;;;5112007;28;20039;-72
2023/11/10 07:56:29;;;;;;;6.10;2.17;;;;;;;;;;5113975;28;20040;-72
2023/11/10 07:59:33;;;;;;;4.78;1.98;;;;;;;;;;5114945;28;20368;-72
2023/11/10 08:02:37;;;;;;;3.83;1.58;;;;;;;;;;5114198;28;20051;-73
2023/11/10 08:05:42;;;;;;;5.93;1.63;;;;;;;;;;5113634;28;20472;-74
2023/11/10 08:08:47;;;;;;;5.53;1.98;;;;;;;;;;5113185;28;20035;-72
2023/11/10 08:11:54;;;;;;;6.78;1.73;;;17.40;99.90;;;;;;5111991;28;20036;-71
2023/11/10 08:15:00;;;;;;;5.93;2.00;;;17.30;99.90;;;;;;5112121;28;20066;-71
2023/11/10 08:18:05;;;;;;;5.68;1.80;;;;;;;;;;5113444;28;20042;-70
2023/11/10 08:21:16;;;;;;;5.90;2.00;;;;;;;;;;5114388;28;20043;-71
2023/11/10 08:24:21;;;;;;;5.68;1.95;;;;;;;;;;5114373;28;20043;-70
2023/11/10 08:27:27;;;;;;;4.07;2.00;;;;;;;;;;5114429;28;20031;-71
2023/11/10 08:30:34;;;;;;;4.05;1.95;;;;;;;;;;5114215;28;20039;-72
2023/11/10 08:33:39;;;;;;;5.47;1.75;;;;;;;;;;5114503;28;20377;-73
2023/11/10 08:36:43;;;;;;;7.38;1.80;;;;;;;;;;5113612;28;20051;-74
2023/11/10 08:39:48;;;;;;;4.68;1.80;;;;;;;;;;5113984;28;20035;-73
2023/11/10 08:42:52;;;;;;;6.47;1.92;;;;;;;;;;5112864;28;20028;-75
2023/11/10 08:45:56;;;;;;;5.25;1.90;;;;;;;;;;5112726;28;20035;-71
2023/11/10 08:49:01;;;;;;;13.30;2.78;;;;;;;;;;5112629;28;20035;-71
2023/11/10 08:52:05;;;;;;;6.72;2.20;;;;;;;;;;5113401;28;20161;-71
2023/11/10 08:55:14;;;;;;;10.40;2.53;;;;;;;;;;5113429;28;20035;-71
2023/11/10 08:58:18;;;;;;;4.50;1.80;;;;;;;;;;5113534;28;20047;-71
2023/11/10 09:01:22;;;;;;;7.93;1.92;;;;;;;;;;5113327;28;20047;-71
2023/11/10 09:04:27;;;;;;;5.68;1.83;;;;;;;;;;5112135;28;20028;-72
2023/11/10 09:07:32;;;;;;;5.63;1.95;;;;;;;;;;5113560;28;20039;-72
2023/11/10 09:10:36;;;;;;;6.55;1.95;;;;;;;;;;5113552;28;20063;-72
2023/11/10 09:13:41;;;;;;;5.63;2.15;;;;;;;;;;5113547;28;20048;-72
2023/11/10 09:16:45;;;;;;;8.30;2.03;;;;;;;;;;5113157;28;20036;-72
2023/11/10 09:19:50;;;;;;;4.65;1.50;;;;;;;;;;5112626;28;20366;-72
2023/11/10 09:22:54;;;;;;;9.15;1.95;;;;;;;;;;5113156;28;20043;-72
2023/11/10 09:25:58;;;;;;;5.63;1.75;;;;;;;;;;5113185;28;20031;-72
2023/11/10 09:29:03;;;;;;;5.63;2.30;;;;;;;;;;5112988;28;20043;-72
2023/11/10 09:32:10;;;;;;;9.80;2.15;;;18.00;99.90;;;;;;5112728;28;20385;-71
2023/11/10 09:35:16;;;;;;;12.77;2.00;;;;;;;;;;5113122;28;20490;-71
2023/11/10 09:38:21;;;;;;;5.10;2.10;;;;;;;;;;5112629;28;20050;-71
2023/11/10 09:41:31;;;;;;;15.13;2.78;;;17.90;99.90;;;;;;5112572;28;20044;-72
2023/11/10 09:44:39;;;;;;;8.13;2.20;;;18.30;99.90;;;;;;5112767;28;20046;-71
2023/11/10 09:47:44;;;;;;;8.48;2.38;;;;;;;;;;5112808;28;20054;-71
2023/11/10 09:50:50;;;;;;;3.50;1.70;;;18.20;99.90;;;;;;5112388;28;20364;-71
2023/11/10 09:53:54;;;;;;;6.05;1.90;;;;;;;;;;5112842;28;20043;-71
2023/11/10 09:56:59;;;;;;;6.72;2.40;;;;;;;;;;5112268;28;20036;-71
2023/11/10 10:00:04;;;;;;;11.07;2.58;;;;;;;;;;5112237;28;20036;-71
2023/11/10 10:03:12;;;;;;;9.90;1.95;;;18.30;99.90;;;;;;5112220;28;20065;-72
2023/11/10 10:06:20;;;;;;;10.55;2.47;;;17.90;99.90;;;;;;5111377;28;20423;-72
2023/11/10 10:09:26;;;;;;;8.35;2.50;;;;;;;;;;5112419;28;20043;-71
2023/11/10 10:12:34;;;;;;;8.10;2.22;;;;;;;;;;5112179;28;20047;-72
2023/11/10 10:15:39;;;;;;;8.90;2.10;;;;;;;;;;5112363;28;20031;-71
2023/11/10 10:18:45;;;;;;;6.20;1.90;;;18.40;99.90;;;;;;5112206;28;20040;-72
2023/11/10 10:21:49;;;;;;;5.47;2.33;;;;;;;;;;5111791;28;20494;-71
2023/11/10 10:24:54;;;;;;;8.75;2.25;;;;;;;;;;5112294;28;20036;-71
2023/11/10 10:28:02;;;;;;;11.20;1.70;;;18.70;99.90;;;;;;5111931;28;20043;-69
2023/11/10 10:31:06;;;;;;;7.00;1.60;;;;;;;;;;5111939;28;20055;-71
2023/11/10 10:34:11;;;;;;;6.85;1.70;;;;;;;;;;5111734;28;20039;-66
2023/11/10 10:37:17;;;;;;;13.77;4.53;;;;;;;;;;5111471;28;20035;-68
2023/11/10 10:40:21;;;;;;;5.55;1.95;;;;;;;;;;5111972;28;20059;-67
2023/11/10 10:43:25;;;;;;;7.85;2.42;;;;;;;;;;5111769;28;20043;-68
2023/11/10 10:46:35;;;;;;;8.10;2.25;;;19.80;99.90;;;;;;5111698;28;20369;-68
2023/11/10 10:49:41;;;;;;;7.03;1.65;;;19.00;99.90;;;;;;5111852;28;20041;-68
2023/11/10 10:52:47;;;;;;;15.48;2.75;;;19.00;99.90;;;;;;5111394;28;20047;-67
2023/11/10 10:55:53;;;;;;;8.50;2.00;;;19.10;99.90;;;;;;5111936;28;20390;-69
2023/11/10 10:59:01;;;;;;;9.18;2.20;;;;;;;;;;5110408;28;20399;-67
2023/11/10 11:02:09;;;;;;;10.48;2.55;;;20.40;99.90;;;;;;5111770;28;20043;-69
2023/11/10 11:05:13;;;;;;;11.50;2.85;;;;;;;;;;5111595;28;20055;-69
2023/11/10 11:08:35;;;;;;;6.38;2.13;;;18.70;99.90;;;;;;5111039;28;20150;-67
2023/11/10 11:12:17;;;;;;;11.68;2.25;;;18.10;99.90;;;;;;5111853;28;20051;-68
2023/11/10 11:15:22;;;;;;;7.60;1.70;;;;;;;;;;5111509;28;20051;-69
2023/11/10 11:18:39;;;;;;;10.57;2.38;;;18.30;99.90;;;;;;5111405;28;20035;-69
2023/11/10 11:21:43;;;;;;;12.20;2.03;;;;;;;;;;5111347;28;20154;-69
2023/11/10 11:24:48;;;;;;;8.23;1.92;;;;;;;;;;5111386;28;20042;-68
2023/11/10 11:27:59;;;;;;;12.90;2.88;;;18.40;99.90;;;;;;5110813;28;20035;-69
2023/11/10 11:31:08;;;;;;;9.63;2.50;;;16.30;99.90;;;;;;5111208;28;20058;-70
2023/11/10 11:34:17;;;;;;;7.50;1.98;;;18.30;99.90;;;;;;5110735;28;20451;-70
2023/11/10 11:37:30;;;;;;;13.15;2.25;;;18.40;99.90;;;;;;5111647;28;20492;-70
2023/11/10 11:40:35;;;;;;;4.90;1.48;;;18.20;99.90;;;;;;5110693;28;20051;-67
2023/11/10 11:43:53;;;;;;;9.35;1.85;;;18.40;99.90;;;;;;5111557;28;20101;-68
2023/11/10 11:46:58;;;;;;;21.30;3.65;;;18.40;99.90;;;;;;5111016;28;20050;-68
2023/11/10 11:50:03;;;;;;;16.45;2.05;;;19.80;99.90;;;;;;5110540;28;20046;-70
2023/11/10 11:53:10;;;;;;;17.05;2.67;;;;;;;;;;5111516;28;20502;-71
2023/11/10 11:56:14;;;;;;;9.35;1.77;;;;;;;;;;5111213;28;20059;-70
2023/11/10 11:59:19;;;;;;;10.02;1.95;;;;;;;;;;5110986;28;20369;-68
2023/11/10 12:02:23;;;;;;;10.73;1.85;;;;;;;;;;5110625;28;20046;-66
2023/11/10 12:05:30;;;;;;;6.63;1.60;;;;;;;;;;5110050;28;20047;-66
2023/11/10 12:08:34;;;;;;;5.82;2.17;;;;;;;;;;5110585;28;20063;-67
2023/11/10 12:11:39;;;;;;;7.45;2.10;;;;;;;;;;5110701;28;20031;-66
2023/11/10 12:14:43;;;;;;;6.80;1.88;;;18.50;99.90;;;;;;5110021;28;20043;-65
2023/11/10 12:17:48;;;;;;;7.35;1.90;;;;;;;;;;5110571;28;20035;-67
2023/11/10 12:20:53;;;;;;;14.43;2.72;;;;;;;;;;5114202;28;20043;-67
2023/11/10 12:23:59;;;;;;;6.88;1.90;;;18.60;99.90;;;;;;5113945;28;20047;-67
2023/11/10 12:27:04;;;;;;;9.07;1.80;;;;;;;;;;5113658;28;20046;-67
2023/11/10 12:30:09;;;;;;;14.63;2.17;;;18.60;99.90;;;;;;5113792;28;20039;-67
2023/11/10 12:33:13;;;;;;;16.45;3.28;;;;;;;;;;5114064;28;20054;-67
2023/11/10 12:36:18;;;;;;;8.57;2.30;;;;;;;;;;5114084;28;20502;-67
2023/11/10 12:39:22;;;;;;;5.85;1.92;;;19.20;99.90;;;;;;5113879;28;20364;-67
2023/11/10 12:42:26;;;;;;;10.07;2.15;;;;;;;;;;5113879;28;20055;-67
2023/11/10 12:45:31;;;;;;;8.30;2.30;;;19.00;99.90;;;;;;5113768;28;20060;-68
2023/11/10 12:48:38;;;;;;;16.15;2.83;;;;;;;;;;5114044;28;20066;-68
2023/11/10 12:51:43;;;;;;;13.52;3.05;;;;;;;;;;5113909;28;20050;-68
2023/11/10 12:54:48;;;;;;;14.82;3.08;;;;;;;;;;5113556;28;20109;-68
2023/11/10 12:57:52;;;;;;;9.57;2.20;;;;;;;;;;5113865;28;20058;-69
2023/11/10 13:00:59;;;;;;;7.72;2.40;;;;;;;;;;5113678;28;20036;-68
2023/11/10 13:04:04;;;;;;;13.98;3.03;;;;;;;;;;5113578;28;20047;-67
2023/11/10 13:07:08;;;;;;;17.30;2.33;;;;;;;;;;5113309;28;20038;-67
2023/11/10 13:10:13;;;;;;;7.68;1.95;;;;;;;;;;5113717;28;20043;-67
2023/11/10 13:13:17;;;;;;;10.20;1.90;;;;;;;;;;5112437;28;20027;-68
2023/11/10 13:16:24;;;;;;;12.23;2.15;;;;;;;;;;5113139;28;20381;-67
2023/11/10 13:19:28;;;;;;;12.30;2.10;;;;;;;;;;5113195;28;20039;-68
2023/11/10 13:22:32;;;;;;;12.98;1.80;;;;;;;;;;5113099;28;20050;-71
2023/11/10 13:25:37;;;;;;;13.13;1.92;;;;;;;;;;5111878;28;20035;-69
2023/11/10 13:28:41;;;;;;;9.20;1.27;;;18.80;99.90;;;;;;5112699;28;20042;-68
2023/11/10 13:31:47;;;;;;;8.45;1.67;;;;;;;;;;5115983;28;20054;-70
2023/11/10 13:34:52;;;;;;;9.18;1.65;;;;;;;;;;5112761;28;20475;-68
2023/11/10 13:37:56;;;;;;;5.78;1.70;;;;;;;;;;5112908;28;20043;-68
2023/11/10 13:41:02;;;;;;;8.88;2.10;;;;;;;;;;5112138;28;20039;-67
2023/11/10 13:44:08;;;;;;;11.77;1.67;;;18.70;99.90;;;;;;5112440;28;20372;-68
2023/11/10 13:47:12;;;;;;;4.13;1.23;;;;;;;;;;5112602;28;20050;-67
2023/11/10 13:50:16;;;;;;;13.40;4.85;;;19.10;99.90;;;;;;5111775;28;20032;-71
2023/11/10 13:53:21;;;;;;;12.43;2.60;;;;;;;;;;5112277;28;20043;-70
2023/11/10 13:56:25;;;;;;;11.55;2.88;;;;;;;;;;5111427;28;20063;-71
2023/11/10 13:59:32;;;;;;;3.88;1.48;;;;;;;;;;5112347;28;20597;-70
2023/11/10 14:02:36;;;;;;;7.82;1.55;;;;;;;;;;5112154;28;20047;-72
2023/11/10 14:05:41;;;;;;;7.22;1.73;;;;;;;;;;5112655;28;20043;-79
2023/11/10 14:08:45;;;;;;;10.35;2.17;;;;;;;;;;5111464;28;20039;-72
2023/11/10 14:11:50;;;;;;;16.58;2.53;;;;;;;;;;5111557;28;20043;-71
2023/11/10 14:14:54;;;;;;;12.07;2.25;;;;;;;;;;5112256;28;20058;-70
2023/11/10 14:17:58;;;;;;;9.32;2.53;;;;;;;;;;5111161;28;20042;-69
2023/11/10 14:21:03;;;;;;;8.30;2.13;;;;;;;;;;5111711;28;20039;-73
2023/11/10 14:24:10;;;;;;;7.53;1.58;;;;;;;;;;5111875;28;20043;-72
2023/11/10 14:27:15;;;;;;;7.47;1.58;;;;;;;;;;5111486;28;20031;-73
2023/11/10 14:30:19;;;;;;;7.80;1.70;;;;;;;;;;5111683;28;20047;-71
2023/11/10 14:33:27;;;;;;;4.70;1.58;;;;;;;;;;5110655;28;20035;-70
2023/11/10 14:36:32;;;;;;;16.33;2.95;;;;;;;;;;5111298;28;20039;-71
2023/11/10 14:39:38;;;;;;;19.02;2.83;;;;;;;;;;5111295;28;20063;-71
2023/11/10 14:42:46;;;;;;;15.00;2.30;;;17.40;99.90;;;;;;5110435;28;20058;-71
2023/11/10 14:45:53;;;;;;;8.00;1.98;;;;;;;;;;5111196;28;20039;-70
2023/11/10 14:48:57;;;;;;;13.45;3.40;;;;;;;;;;5111238;28;20039;-71
2023/11/10 14:52:08;;;;;;;14.65;2.28;;;;;;;;;;5111415;28;20042;-71
2023/11/10 14:55:12;;;;;;;8.90;1.52;;;;;;;;;;5110300;28;20046;-71
2023/11/10 14:58:17;;;;;;;13.82;2.35;;;;;;;;;;5110498;28;20035;-71
2023/11/10 15:01:21;;;;;;;7.05;2.30;;;;;;;;;;5111103;28;20475;-71
2023/11/10 15:04:26;;;;;;;21.15;4.32;;;;;;;;;;5110803;28;20032;-71
2023/11/10 15:07:31;;;;;;;11.02;2.90;;;;;;;;;;5111131;28;20046;-71
2023/11/10 15:10:35;;;;;;;12.05;2.38;;;;;;;;;;5110853;28;20054;-71
2023/11/10 15:13:40;;;;;;;7.25;2.13;;;;;;;;;;5111084;28;20054;-71
2023/11/10 15:16:48;;;;;;;7.97;1.95;;;;;;;;;;5111108;28;20036;-71
2023/11/10 15:19:52;;;;;;;9.73;1.90;;;;;;;;;;5110909;28;20036;-71
2023/11/10 15:22:57;;;;;;;9.65;2.30;;;;;;;;;;5110825;28;20043;-71
2023/11/10 15:26:01;;;;;;;9.27;2.13;;;;;;;;;;5110990;28;20036;-71
2023/11/10 15:29:06;;;;;;;11.70;2.80;;;;;;;;;;5111327;28;20039;-72
2023/11/10 15:32:13;;;;;;;15.45;3.35;;;;;;;;;;5110946;28;20423;-72
2023/11/10 15:35:19;;;;;;;11.75;2.90;;;;;;;;;;5111034;28;20047;-72
2023/11/10 15:38:26;;;;;;;13.45;3.55;;;;;;;;;;5111140;28;20046;-73
2023/11/10 15:41:30;;;;;;;11.65;4.75;;;;;;;;;;5110813;28;20047;-71
2023/11/10 15:44:36;;;;;;;13.55;3.40;;;;;;;;;;5110956;28;20051;-74
2023/11/10 15:47:40;;;;;;;10.75;2.75;;;;;;;;;;5111034;28;20701;-72
2023/11/10 15:50:44;;;;;;;7.97;3.88;;;;;;;;;;5110648;28;20042;-72
2023/11/10 15:53:49;;;;;;;13.70;4.20;;;;;;;;;;5113722;28;20040;-72
2023/11/10 15:56:53;;;;;;;9.52;4.03;;;;;;;;;;5114178;28;20043;-70
2023/11/10 15:59:58;;;;;;;15.05;4.40;;;;;;;;;;5114954;28;20040;-70
2023/11/10 16:03:02;;;;;;;15.05;4.13;;;;;;;;;;5114715;28;20042;-73
2023/11/10 16:06:09;;;;;;;12.60;4.25;;;;;;;;;;5114978;28;20041;-71
2023/11/10 16:09:19;;;;;;;8.65;3.45;;;;;;;;;;5114622;28;20399;-71
2023/11/10 16:12:25;;;;;;;9.52;3.30;;;;;;;;;;5114870;28;20036;-71
2023/11/10 16:15:29;;;;;;;16.38;3.50;;;;;;;;;;5114420;28;20040;-70
2023/11/10 16:18:34;;;;;;;19.25;3.80;;;;;;;;;;5114679;28;20050;-69
2023/11/10 16:21:38;;;;;;;18.98;3.83;;;;;;;;;;5114675;28;20051;-70
2023/11/10 16:24:43;;;;;;;16.10;3.53;;;;;;;;;;5114352;28;20049;-69
2023/11/10 16:27:50;;;;;;;16.98;3.55;;;17.00;99.90;;;;;;5114364;28;20403;-70
2023/11/10 16:30:54;;;;;;;13.45;3.67;;;;;;;;;;5114341;28;20050;-69
2023/11/10 16:33:59;;;;;;;15.32;3.63;;;;;;;;;;5114681;28;20109;-74
2023/11/10 16:37:04;;;;;;;10.77;3.88;;;;;;;;;;5114265;28;20039;-73
2023/11/10 16:40:10;;;;;;;8.90;4.25;;;;;;;;;;5114632;28;20043;-72
2023/11/10 16:43:14;;;;;;;14.35;4.93;;;;;;;;;;5113972;28;20056;-73
2023/11/10 16:46:19;;;;;;;12.32;4.10;;;;;;;;;;5114354;28;20046;-69
2023/11/10 16:49:26;;;;;;;7.82;2.75;;;;;;;;;;5114125;28;20046;-70
2023/11/10 16:52:31;;;;;;;14.82;2.83;;;;;;;;;;5114254;28;20039;-73
2023/11/10 16:55:35;;;;;;;6.15;2.58;;;;;;;;;;5112573;28;20063;-73
2023/11/10 16:58:40;;;;;;;8.82;2.80;;;;;;;;;;5113581;28;20031;-70
2023/11/10 17:01:44;;;;;;;12.27;3.63;;;;;;;;;;5113533;28;20487;-68
2023/11/10 17:04:49;;;;;;;13.95;2.83;;;;;;;;;;5112704;28;20039;-69
2023/11/10 17:07:54;;;;;;;11.10;3.83;;;;;;;;;;5113403;28;20070;-73
2023/11/10 17:10:59;;;;;;;27.30;9.02;;;;;;;;;;5113375;28;20046;-70
2023/11/10 17:14:03;;;;;;;13.65;5.32;;;;;;;;;;5113104;28;20038;-68
2023/11/10 17:17:07;;;;;;;9.60;3.60;;;;;;;;;;5112979;28;20063;-69
2023/11/10 17:20:12;;;;;;;18.27;4.25;;;;;;;;;;5113100;28;20035;-73
2023/11/10 17:23:20;;;;;;;12.32;3.50;;;;;;;;;;5112771;28;20050;-73
2023/11/10 17:26:26;;;;;;;14.18;4.18;;;;;;;;;;5112850;28;20391;-77
2023/11/10 17:29:31;;;;;;;12.25;3.83;;;;;;;;;;5112987;28;20392;-71
2023/11/10 17:32:35;;;;;;;20.70;4.35;;;;;;;;;;5112991;28;20050;-74
2023/11/10 17:35:40;;;;;;;15.43;3.35;;;;;;;;;;5111978;28;20050;-69
2023/11/10 17:38:46;;;;;;;14.07;3.65;;;;;;;;;;5112610;28;20047;-69
2023/11/10 17:41:50;;;;;;;19.23;3.30;;;;;;;;;;5112113;28;20411;-70
2023/11/10 17:44:57;;;;;;;13.25;3.95;;;;;;;;;;5112528;28;20046;-68
2023/11/10 17:48:01;;;;;;;12.23;2.97;;;;;;;;;;5112743;28;20050;-69
2023/11/10 17:51:07;;;;;;;16.48;2.72;;;;;;;;;;5112409;28;20117;-69
2023/11/10 17:54:12;;;;;;;7.82;2.47;;;;;;;;;;5112583;28;20042;-69
2023/11/10 17:57:16;;;;;;;13.45;3.10;;;;;;;;;;5112638;28;20401;-69
2023/11/10 18:00:22;;;;;;;13.50;3.00;;;;;;;;;;5112601;28;20043;-68
2023/11/10 18:03:32;;;;;;;26.67;3.83;;;16.70;99.90;;;;;;5112296;28;20058;-68